createdAt,value
2019-02-23T00:01:26.853Z,103453.69
2019-02-23T00:03:56.628Z,103447.63
2019-02-23T00:06:29.748Z,103453.84
2019-02-23T00:08:52.891Z,103451.22
2019-02-23T00:11:20.338Z,103445.58
2019-02-23T00:13:53.143Z,103432.99
2019-02-23T00:16:24.482Z,103427.29
2019-02-23T00:18:53.344Z,103425.63
2019-02-23T00:21:23.405Z,103428.66
2019-02-23T00:23:50.694Z,103431.36
2019-02-23T00:26:21.964Z,103419.66
2019-02-23T00:28:50.924Z,103411.81
2019-02-23T00:31:18.021Z,103401.87
2019-02-23T00:33:48.059Z,103408.45
2019-02-23T00:36:15.106Z,103407.20
2019-02-23T00:38:42.180Z,103400.20
2019-02-23T00:41:09.230Z,103392.36
2019-02-23T00:43:36.283Z,103386.30
2019-02-23T00:46:03.350Z,103382.38
2019-02-23T00:48:30.414Z,103380.75
2019-02-23T00:50:57.483Z,103376.83
2019-02-23T00:53:24.635Z,103370.77
2019-02-23T00:55:51.755Z,103372.77
2019-02-23T00:58:18.889Z,103371.41
2019-02-23T01:00:45.900Z,103377.44
2019-02-23T01:03:12.962Z,103371.80
2019-02-23T01:05:40.020Z,103365.34
2019-02-23T01:08:07.079Z,103353.17
2019-02-23T01:10:34.196Z,103338.37
2019-02-23T01:13:01.263Z,103337.48
2019-02-23T01:15:28.346Z,103333.62
2019-02-23T01:17:55.427Z,103332.31
2019-02-23T01:20:22.590Z,103321.86
2019-02-23T01:22:52.700Z,103338.05
2019-02-23T01:25:19.778Z,103355.03
2019-02-23T01:27:46.872Z,103355.03
2019-02-23T01:30:13.934Z,103344.63
2019-02-23T01:35:04.582Z,103338.43
2019-02-23T01:37:31.645Z,103343.94
2019-02-23T01:39:58.715Z,103344.86
2019-02-23T01:42:25.807Z,103343.14
2019-02-23T01:44:52.856Z,103344.50
2019-02-23T01:47:20.009Z,103336.32
2019-02-23T01:49:47.073Z,103323.72
2019-02-23T01:52:14.148Z,103308.51
2019-02-23T01:54:41.243Z,103304.25
2019-02-23T01:57:10.362Z,103296.08
2019-02-23T01:59:37.582Z,103289.12
2019-02-23T02:02:04.656Z,103286.64
2019-02-23T02:04:31.713Z,103270.53
2019-02-23T02:06:58.778Z,103261.39
2019-02-23T02:09:25.839Z,103231.37
2019-02-23T02:11:52.899Z,103223.61
2019-02-23T02:14:21.877Z,103222.81
2019-02-23T02:16:49.002Z,103233.36
2019-02-23T02:19:16.098Z,103244.37
2019-02-23T02:21:43.435Z,103246.56
2019-02-23T02:24:10.497Z,103248.29
2019-02-23T02:26:37.567Z,103254.03
2019-02-23T02:29:04.630Z,103258.46
2019-02-23T02:31:31.730Z,103258.09
2019-02-23T02:34:09.762Z,103283.44
2019-02-23T02:36:36.832Z,103297.40
2019-02-23T02:39:10.088Z,103319.77
2019-02-23T02:41:37.164Z,103326.77
2019-02-23T02:44:04.230Z,103316.78
2019-02-23T02:46:31.291Z,103302.95
2019-02-23T02:48:58.357Z,103289.03
2019-02-23T02:51:25.419Z,103272.16
2019-02-23T02:53:52.479Z,103268.31
2019-02-23T02:56:19.536Z,103286.20
2019-02-23T02:58:46.596Z,103275.75
2019-02-23T03:01:13.662Z,103253.55
2019-02-23T03:03:40.730Z,103265.80
2019-02-23T03:06:07.778Z,103240.61
2019-02-23T03:08:34.841Z,103252.38
2019-02-23T03:11:01.931Z,103237.99
2019-02-23T03:13:29.000Z,103237.70
2019-02-23T03:15:56.052Z,103228.12
2019-02-23T03:18:23.129Z,103239.98
2019-02-23T03:20:50.186Z,103241.28
2019-02-23T03:23:17.242Z,103243.06
2019-02-23T03:25:44.307Z,103254.88
2019-02-23T03:28:13.391Z,103245.33
2019-02-23T03:30:40.456Z,103253.27
2019-02-23T03:33:07.511Z,103248.13
2019-02-23T03:35:34.577Z,103255.21
2019-02-23T03:38:01.645Z,103250.87
2019-02-23T03:40:28.700Z,103244.33
2019-02-23T03:42:55.762Z,103254.38
2019-02-23T03:45:22.816Z,103263.66
2019-02-23T03:47:49.867Z,103250.20
2019-02-23T03:50:16.929Z,103259.02
2019-02-23T03:52:43.993Z,103273.53
2019-02-23T03:55:11.179Z,103259.14
2019-02-23T03:57:38.236Z,103249.14
2019-02-23T04:00:06.501Z,103254.03
2019-02-23T04:02:33.556Z,103252.72
2019-02-23T04:05:00.624Z,103242.59
2019-02-23T04:07:27.683Z,103244.92
2019-02-23T04:09:54.736Z,103232.25
2019-02-23T04:12:21.806Z,103237.56
2019-02-23T04:14:48.870Z,103227.44
2019-02-23T04:17:15.943Z,103228.75
2019-02-23T04:19:43.003Z,103233.14
2019-02-23T04:22:10.064Z,103225.70
2019-02-23T04:24:37.118Z,103225.24
2019-02-23T04:27:04.180Z,103227.86
2019-02-23T04:29:31.236Z,103224.87
2019-02-23T04:31:58.295Z,103224.48
2019-02-23T04:34:25.359Z,103230.52
2019-02-23T04:36:52.420Z,103234.52
2019-02-23T04:39:19.513Z,103238.45
2019-02-23T04:41:46.568Z,103239.80
2019-02-23T04:44:13.632Z,103239.46
2019-02-23T04:46:40.687Z,103237.31
2019-02-23T04:49:07.759Z,103235.16
2019-02-23T04:51:34.849Z,103219.45
2019-02-23T04:54:01.908Z,103224.34
2019-02-23T04:56:29.016Z,103220.84
2019-02-23T04:58:56.111Z,103215.23
2019-02-23T05:01:23.174Z,103211.72
2019-02-23T05:03:50.232Z,103209.61
2019-02-23T05:06:17.300Z,103212.69
2019-02-23T05:08:44.531Z,103215.73
2019-02-23T05:11:11.650Z,103223.20
2019-02-23T05:13:38.677Z,103216.20
2019-02-23T05:16:05.736Z,103227.13
2019-02-23T05:18:32.789Z,103222.31
2019-02-23T05:20:59.849Z,103222.39
2019-02-23T05:23:26.908Z,103227.67
2019-02-23T05:25:53.966Z,103208.92
2019-02-23T05:28:21.020Z,103214.16
2019-02-23T05:30:48.083Z,103210.23
2019-02-23T05:33:15.205Z,103218.16
2019-02-23T05:35:42.258Z,103207.73
2019-02-23T05:38:09.321Z,103211.66
2019-02-23T05:40:36.382Z,103203.39
2019-02-23T05:43:03.459Z,103205.54
2019-02-23T05:45:30.508Z,103206.50
2019-02-23T05:47:57.585Z,103200.77
2019-02-23T05:50:24.654Z,103207.02
2019-02-23T05:52:51.733Z,103202.63
2019-02-23T05:55:18.821Z,103204.35
2019-02-23T05:57:45.911Z,103211.83
2019-02-23T06:00:13.304Z,103212.75
2019-02-23T06:02:40.376Z,103210.13
2019-02-23T06:05:07.921Z,103196.61
2019-02-23T06:07:34.972Z,103205.36
2019-02-23T06:10:02.452Z,103205.36
2019-02-23T06:12:29.597Z,103192.27
2019-02-23T06:14:56.652Z,103196.66
2019-02-23T06:17:23.719Z,103214.17
2019-02-23T06:19:50.783Z,103204.63
2019-02-23T06:22:17.877Z,103211.64
2019-02-23T06:24:44.971Z,103211.76
2019-02-23T06:27:12.077Z,103208.67
2019-02-23T06:29:39.181Z,103205.59
2019-02-23T06:32:06.241Z,103210.95
2019-02-23T06:34:33.299Z,103200.94
2019-02-23T06:37:00.395Z,103212.64
2019-02-23T06:39:27.497Z,103217.08
2019-02-23T06:41:54.606Z,103224.55
2019-02-23T06:44:21.665Z,103231.64
2019-02-23T06:46:48.759Z,103232.10
2019-02-23T06:49:15.817Z,103224.67
2019-02-23T06:51:42.922Z,103225.55
2019-02-23T06:54:10.046Z,103216.58
2019-02-23T06:56:37.110Z,103216.92
2019-02-23T06:59:04.221Z,103212.11
2019-02-23T07:01:31.288Z,103213.89
2019-02-23T07:03:58.404Z,103215.20
2019-02-23T07:06:25.491Z,103221.28
2019-02-23T07:08:52.579Z,103218.70
2019-02-23T07:11:19.666Z,103229.72
2019-02-23T07:13:46.725Z,103211.77
2019-02-23T07:16:13.770Z,103217.13
2019-02-23T07:18:40.847Z,103224.48
2019-02-23T07:21:07.900Z,103213.66
2019-02-23T07:23:34.955Z,103214.13
2019-02-23T07:26:02.035Z,103219.02
2019-02-23T07:28:29.096Z,103220.78
2019-02-23T07:30:56.151Z,103216.44
2019-02-23T07:33:32.377Z,103213.39
2019-02-23T07:35:52.282Z,103202.10
2019-02-23T07:38:19.344Z,103203.03
2019-02-23T07:40:46.403Z,103203.91
2019-02-23T07:43:13.454Z,103216.24
2019-02-23T07:45:40.560Z,103209.34
2019-02-23T07:48:07.661Z,103207.23
2019-02-23T07:50:34.727Z,103195.94
2019-02-23T07:53:01.789Z,103200.79
2019-02-23T07:55:28.888Z,103204.80
2019-02-23T07:57:55.951Z,103210.96
2019-02-23T08:00:23.017Z,103213.58
2019-02-23T08:02:51.197Z,103211.92
2019-02-23T08:05:18.279Z,103207.64
2019-02-23T08:07:45.519Z,103204.21
2019-02-23T08:10:12.623Z,103212.50
2019-02-23T08:12:39.741Z,103216.89
2019-02-23T08:15:07.338Z,103230.48
2019-02-23T08:17:34.562Z,103237.93
2019-02-23T08:20:01.803Z,103236.31
2019-02-23T08:22:37.059Z,103238.58
2019-02-23T08:24:59.249Z,103248.14
2019-02-23T08:27:26.535Z,103240.36
2019-02-23T08:29:55.704Z,103233.80
2019-02-23T08:32:22.798Z,103243.86
2019-02-23T08:34:49.859Z,103233.91
2019-02-23T08:37:17.315Z,103233.02
2019-02-23T08:39:44.394Z,103237.00
2019-02-23T08:42:11.559Z,103247.59
2019-02-23T08:44:39.981Z,103238.42
2019-02-23T08:47:07.080Z,103238.46
2019-02-23T08:49:34.140Z,103239.42
2019-02-23T08:52:01.224Z,103242.50
2019-02-23T08:54:28.320Z,103244.23
2019-02-23T08:56:55.479Z,103246.01
2019-02-23T08:59:22.571Z,103242.19
2019-02-23T09:01:49.637Z,103235.17
2019-02-23T09:04:16.724Z,103220.33
2019-02-23T09:06:43.807Z,103224.34
2019-02-23T09:09:10.885Z,103235.64
2019-02-23T09:11:37.965Z,103219.55
2019-02-23T09:14:05.034Z,103214.31
2019-02-23T09:16:32.171Z,103216.51
2019-02-23T09:18:59.218Z,103212.22
2019-02-23T09:21:26.346Z,103220.98
2019-02-23T09:23:53.424Z,103228.38
2019-02-23T09:26:20.489Z,103248.12
2019-02-23T09:28:47.552Z,103250.81
2019-02-23T09:31:14.652Z,103260.03
2019-02-23T09:33:41.705Z,103251.73
2019-02-23T09:36:08.859Z,103257.91
2019-02-23T09:38:35.941Z,103245.30
2019-02-23T09:41:03.010Z,103233.03
2019-02-23T09:43:30.124Z,103219.08
2019-02-23T09:45:57.187Z,103212.27
2019-02-23T09:48:24.244Z,103204.33
2019-02-23T09:50:51.321Z,103212.31
2019-02-23T09:53:18.397Z,103203.63
2019-02-23T09:55:45.462Z,103203.20
2019-02-23T09:58:12.539Z,103206.59
2019-02-23T10:00:39.619Z,103206.35
2019-02-23T10:03:06.696Z,103209.55
2019-02-23T10:05:33.762Z,103196.22
2019-02-23T10:08:00.814Z,103191.89
2019-02-23T10:10:27.911Z,103194.16
2019-02-23T10:12:54.966Z,103193.73
2019-02-23T10:15:22.013Z,103194.19
2019-02-23T10:17:49.096Z,103189.05
2019-02-23T10:20:16.178Z,103200.95
2019-02-23T10:22:43.246Z,103199.22
2019-02-23T10:25:10.315Z,103196.17
2019-02-23T10:27:37.454Z,103192.23
2019-02-23T10:30:05.162Z,103193.22
2019-02-23T10:32:32.261Z,103178.89
2019-02-23T10:34:59.383Z,103185.03
2019-02-23T10:37:26.422Z,103188.61
2019-02-23T10:39:53.500Z,103175.35
2019-02-23T10:42:20.573Z,103169.55
2019-02-23T10:44:47.676Z,103169.58
2019-02-23T10:47:14.819Z,103160.43
2019-02-23T10:49:41.962Z,103166.66
2019-02-23T10:52:09.059Z,103164.89
2019-02-23T10:54:36.110Z,103174.07
2019-02-23T10:57:03.393Z,103173.48
2019-02-23T10:59:30.507Z,103177.34
2019-02-23T11:01:57.595Z,103174.36
2019-02-23T11:04:24.672Z,103167.80
2019-02-23T11:06:51.737Z,103175.70
2019-02-23T11:09:27.224Z,103169.12
2019-02-23T11:11:54.337Z,103161.34
2019-02-23T11:14:21.404Z,103147.41
2019-02-23T11:16:48.737Z,103142.79
2019-02-23T11:19:15.744Z,103147.25
2019-02-23T11:21:42.856Z,103151.08
2019-02-23T11:24:10.052Z,103145.51
2019-02-23T11:26:38.258Z,103141.94
2019-02-23T11:29:05.406Z,103141.84
2019-02-23T11:31:32.479Z,103139.64
2019-02-23T11:33:59.733Z,103141.11
2019-02-23T11:36:26.816Z,103149.05
2019-02-23T11:38:56.905Z,103145.22
2019-02-23T11:41:24.068Z,103147.02
2019-02-23T11:43:56.603Z,103143.97
2019-02-23T11:46:25.885Z,103138.30
2019-02-23T11:48:53.116Z,103149.74
2019-02-23T11:51:27.228Z,103156.43
2019-02-23T11:54:02.873Z,103147.58
2019-02-23T11:56:32.643Z,103140.62
2019-02-23T11:59:00.536Z,103148.00
2019-02-23T12:01:35.720Z,103145.94
2019-02-23T12:04:10.080Z,103156.07
2019-02-23T12:06:42.521Z,103156.98
2019-02-23T12:09:12.417Z,103146.55
2019-02-23T12:11:46.156Z,103135.30
2019-02-23T12:14:18.326Z,103122.20
2019-02-23T12:16:45.480Z,103119.79
2019-02-23T12:19:18.317Z,103129.14
2019-02-23T12:21:54.981Z,103136.95
2019-02-23T12:24:24.849Z,103134.39
2019-02-23T12:26:53.805Z,103128.16
2019-02-23T12:29:20.871Z,103147.97
2019-02-23T12:31:47.932Z,103151.58
2019-02-23T12:34:14.980Z,103128.47
2019-02-23T12:36:42.117Z,103128.49
2019-02-23T12:39:09.147Z,103126.36
2019-02-23T12:41:38.943Z,103129.47
2019-02-23T12:44:06.029Z,103121.66
2019-02-23T12:46:36.638Z,103125.20
2019-02-23T12:49:08.460Z,103117.41
2019-02-23T12:51:38.655Z,103121.44
2019-02-23T12:54:17.006Z,103128.16
2019-02-23T12:56:48.607Z,103125.89
2019-02-23T12:59:18.636Z,103118.81
2019-02-23T13:01:54.162Z,103116.19
2019-02-23T13:04:29.956Z,103130.27
2019-02-23T13:07:02.210Z,103136.83
2019-02-23T13:09:36.449Z,103138.57
2019-02-23T13:12:47.262Z,103145.50
2019-02-23T13:15:28.496Z,103144.55
2019-02-23T13:18:33.026Z,103137.08
2019-02-23T13:21:35.602Z,103140.95
2019-02-23T13:24:30.352Z,103132.71
2019-02-23T13:27:24.682Z,103135.42
2019-02-23T13:30:23.972Z,103135.36
2019-02-23T13:33:22.105Z,103132.34
2019-02-23T13:36:07.194Z,103128.86
2019-02-23T13:38:55.065Z,103126.35
2019-02-23T13:42:08.625Z,103123.81
2019-02-23T13:45:17.198Z,103112.88
2019-02-23T13:48:38.165Z,103103.74
2019-02-23T13:51:46.350Z,103110.66
2019-02-23T13:54:47.728Z,103105.25
2019-02-23T13:58:02.715Z,103110.47
2019-02-23T14:01:26.430Z,103108.39
2019-02-23T14:04:29.000Z,103105.31
2019-02-23T14:07:34.233Z,103107.48
2019-02-23T14:10:47.384Z,103101.83
2019-02-23T14:13:58.205Z,103103.69
2019-02-23T14:17:01.683Z,103094.55
2019-02-23T14:20:05.012Z,103084.53
2019-02-23T14:22:59.439Z,103087.64
2019-02-23T14:26:07.559Z,103083.21
2019-02-23T14:29:25.399Z,103079.27
2019-02-23T14:32:25.452Z,103085.09
2019-02-23T14:35:24.521Z,103074.59
2019-02-23T14:38:42.247Z,103081.10
2019-02-23T14:41:45.072Z,103075.33
2019-02-23T14:44:58.897Z,103078.36
2019-02-23T14:47:55.510Z,103070.48
2019-02-23T14:50:41.613Z,103067.00
2019-02-23T14:53:56.718Z,103063.11
2019-02-23T14:57:01.801Z,103057.89
2019-02-23T14:59:59.558Z,103055.23
2019-02-23T15:03:26.736Z,103055.72
2019-02-23T15:06:28.485Z,103049.72
2019-02-23T15:09:39.116Z,103048.41
2019-02-23T15:12:27.848Z,103052.29
2019-02-23T15:15:42.409Z,103052.34
2019-02-23T15:18:54.286Z,103047.09
2019-02-23T15:21:53.111Z,103047.09
2019-02-23T15:24:53.018Z,103047.92
2019-02-23T15:27:57.141Z,103056.66
2019-02-23T15:30:51.657Z,103055.86
2019-02-23T15:34:07.407Z,103053.23
2019-02-23T15:37:00.955Z,103059.28
2019-02-23T15:40:30.725Z,103073.28
2019-02-23T15:43:25.461Z,103065.34
2019-02-23T15:46:19.574Z,103066.71
2019-02-23T15:49:26.833Z,103071.19
2019-02-23T15:51:58.518Z,103074.41
2019-02-23T15:54:34.170Z,103074.45
2019-02-23T15:57:03.750Z,103081.02
2019-02-23T15:59:31.000Z,103078.75
2019-02-23T16:01:58.132Z,103086.64
2019-02-23T16:04:31.228Z,103089.18
2019-02-23T16:07:01.091Z,103090.44
2019-02-23T16:09:28.547Z,103086.02
2019-02-23T16:11:55.857Z,103089.50
2019-02-23T16:14:25.136Z,103090.30
2019-02-23T16:16:53.851Z,103089.38
2019-02-23T16:19:23.420Z,103085.30
2019-02-23T16:25:21.850Z,103070.77
2019-02-23T16:27:51.487Z,103070.73
2019-02-23T16:30:19.098Z,103061.97
2019-02-23T16:33:03.089Z,103062.83
2019-02-23T16:35:42.092Z,103058.95
2019-02-23T16:38:10.339Z,103064.59
2019-02-23T16:40:38.179Z,103059.34
2019-02-23T16:43:05.333Z,103063.14
2019-02-23T16:45:35.171Z,103077.55
2019-02-23T16:48:02.391Z,103077.44
2019-02-23T16:50:29.686Z,103066.33
2019-02-23T16:52:59.947Z,103064.56
2019-02-23T16:55:28.220Z,103063.67
2019-02-23T16:57:57.578Z,103062.30
2019-02-23T17:00:24.618Z,103060.98
2019-02-23T17:02:51.688Z,103041.38
2019-02-23T17:05:18.755Z,103060.80
2019-02-23T17:07:45.827Z,103045.06
2019-02-23T17:10:12.912Z,103039.45
2019-02-23T17:12:39.987Z,103023.34
2019-02-23T17:15:10.372Z,103007.59
2019-02-23T17:17:36.181Z,103010.16
2019-02-23T17:20:03.435Z,103004.39
2019-02-23T17:22:30.483Z,103012.61
2019-02-23T17:24:57.555Z,103019.52
2019-02-23T17:27:35.917Z,102993.58
2019-02-23T17:29:53.663Z,103004.16
2019-02-23T17:32:20.750Z,103020.47
2019-02-23T17:34:47.999Z,103017.75
2019-02-23T17:37:15.095Z,103032.02
2019-02-23T17:39:42.185Z,103022.65
2019-02-23T17:42:09.264Z,103009.84
2019-02-23T17:44:36.342Z,102999.25
2019-02-23T17:47:03.396Z,103017.25
2019-02-23T17:49:30.471Z,103013.32
2019-02-23T17:51:57.574Z,103025.92
2019-02-23T17:54:24.626Z,103009.23
2019-02-23T17:56:51.678Z,103007.44
2019-02-23T17:59:18.771Z,103019.61
2019-02-23T18:01:46.056Z,103021.29
2019-02-23T18:04:13.140Z,103014.64
2019-02-23T18:06:40.285Z,103022.52
2019-02-23T18:09:07.373Z,103026.85
2019-02-23T18:11:34.608Z,103028.16
2019-02-23T18:14:02.101Z,103028.70
2019-02-23T18:16:29.610Z,103015.16
2019-02-23T18:18:57.602Z,103009.09
2019-02-23T18:21:24.796Z,103002.92
2019-02-23T18:23:51.885Z,102997.77
2019-02-23T18:26:21.151Z,102993.91
2019-02-23T18:28:48.074Z,102991.20
2019-02-23T18:31:15.137Z,102992.85
2019-02-23T18:33:42.198Z,102984.41
2019-02-23T18:36:09.266Z,102980.38
2019-02-23T18:38:36.326Z,102978.13
2019-02-23T18:41:03.412Z,102971.04
2019-02-23T18:43:30.458Z,102971.02
2019-02-23T18:45:57.626Z,102982.36
2019-02-23T18:48:24.697Z,102976.63
2019-02-23T18:50:51.804Z,102962.63
2019-02-23T18:53:18.908Z,102969.61
2019-02-23T18:55:45.993Z,102968.27
2019-02-23T18:58:13.053Z,102965.31
2019-02-23T19:00:40.119Z,102970.61
2019-02-23T19:03:07.204Z,102963.17
2019-02-23T19:05:34.290Z,102959.23
2019-02-23T19:08:01.433Z,102960.09
2019-02-23T19:10:28.612Z,102955.21
2019-02-23T19:12:55.671Z,102965.67
2019-02-23T19:15:23.837Z,102967.84
2019-02-23T19:17:50.904Z,102971.78
2019-02-23T19:20:18.003Z,102957.72
2019-02-23T19:22:45.086Z,102952.44
2019-02-23T19:25:12.159Z,102947.59
2019-02-23T19:27:39.260Z,102951.92
2019-02-23T19:30:08.116Z,102957.62
2019-02-23T19:32:35.186Z,102947.64
2019-02-23T19:35:02.275Z,102952.53
2019-02-23T19:37:29.331Z,102953.41
2019-02-23T19:39:56.383Z,102957.78
2019-02-23T19:42:23.489Z,102946.34
2019-02-23T19:44:51.253Z,102961.20
2019-02-23T19:47:22.071Z,102956.77
2019-02-23T19:49:51.441Z,102948.08
2019-02-23T19:52:18.500Z,102931.81
2019-02-23T19:54:45.646Z,102927.34
2019-02-23T19:57:12.705Z,102915.90
2019-02-23T19:59:39.806Z,102918.06
2019-02-23T20:02:09.926Z,102914.92
2019-02-23T20:04:37.218Z,102923.22
2019-02-23T20:07:07.430Z,102928.05
2019-02-23T20:09:34.580Z,102919.31
2019-02-23T20:12:05.040Z,102912.73
2019-02-23T20:14:32.259Z,102911.84
2019-02-23T20:17:06.455Z,102920.57
2019-02-23T20:19:33.703Z,102919.72
2019-02-23T20:22:08.151Z,102919.27
2019-02-23T20:24:37.292Z,102915.72
2019-02-23T20:27:08.613Z,102896.97
2019-02-23T20:29:37.458Z,102904.41
2019-02-23T20:32:04.662Z,102905.23
2019-02-23T20:34:31.858Z,102897.36
2019-02-23T20:37:03.568Z,102886.41
2019-02-23T20:39:28.225Z,102885.53
2019-02-23T20:41:55.347Z,102882.39
2019-02-23T20:44:28.933Z,102886.75
2019-02-23T20:46:58.367Z,102885.89
2019-02-23T20:49:31.216Z,102881.50
2019-02-23T20:51:59.776Z,102887.20
2019-02-23T20:54:36.553Z,102888.06
2019-02-23T20:57:13.668Z,102883.67
2019-02-23T20:59:37.945Z,102881.93
2019-02-23T21:02:12.765Z,102885.44
2019-02-23T21:04:40.794Z,102886.73
2019-02-23T21:07:08.045Z,102891.63
2019-02-23T21:09:37.480Z,102900.81
2019-02-23T21:12:10.229Z,102893.40
2019-02-23T21:14:44.050Z,102887.70
2019-02-23T21:17:13.652Z,102892.45
2019-02-23T21:19:43.592Z,102891.14
2019-02-23T21:22:15.243Z,102886.84
2019-02-23T21:24:47.379Z,102881.50
2019-02-23T21:27:21.915Z,102895.56
2019-02-23T21:29:49.051Z,102892.85
2019-02-23T21:32:16.132Z,102901.23
2019-02-23T21:34:43.209Z,102894.19
2019-02-23T21:37:10.269Z,102906.05
2019-02-23T21:39:37.388Z,102896.39
2019-02-23T21:42:04.472Z,102893.77
2019-02-23T21:44:31.573Z,102890.31
2019-02-23T21:46:58.870Z,102886.81
2019-02-23T21:49:25.942Z,102887.20
2019-02-23T21:51:53.059Z,102883.25
2019-02-23T21:54:20.157Z,102881.50
2019-02-23T21:56:47.225Z,102880.65
2019-02-23T21:59:14.366Z,102889.44
2019-02-23T22:01:41.521Z,102887.70
2019-02-23T22:04:08.618Z,102885.53
2019-02-23T22:06:35.793Z,102884.67
2019-02-23T22:09:03.881Z,102889.09
2019-02-23T22:11:30.948Z,102892.11
2019-02-23T22:13:58.015Z,102898.27
2019-02-23T22:16:25.109Z,102895.66
2019-02-23T22:18:52.170Z,102898.22
2019-02-23T22:21:19.258Z,102897.33
2019-02-23T22:23:46.407Z,102892.09
2019-02-23T22:26:13.497Z,102886.41
2019-02-23T22:28:40.579Z,102883.36
2019-02-23T22:31:07.647Z,102878.97
2019-02-23T22:33:34.672Z,102875.92
2019-02-23T22:36:01.767Z,102878.11
2019-02-23T22:38:28.840Z,102878.61
2019-02-23T22:40:55.899Z,102879.00
2019-02-23T22:43:22.975Z,102873.72
2019-02-23T22:45:50.055Z,102869.81
2019-02-23T22:48:17.360Z,102869.42
2019-02-23T22:50:44.440Z,102871.98
2019-02-23T22:53:11.492Z,102863.27
2019-02-23T22:55:38.556Z,102863.75
2019-02-23T22:58:05.663Z,102853.73
2019-02-23T23:01:07.614Z,102845.56
2019-02-23T23:03:43.804Z,102841.14
2019-02-23T23:06:12.399Z,102837.12
2019-02-23T23:08:41.035Z,102834.02
2019-02-23T23:11:08.544Z,102839.20
2019-02-23T23:13:45.844Z,102832.19
2019-02-23T23:16:15.778Z,102830.42
2019-02-23T23:18:43.099Z,102831.25
2019-02-23T23:21:13.854Z,102826.06
2019-02-23T23:23:42.005Z,102821.24
2019-02-23T23:26:11.647Z,102816.82
2019-02-23T23:28:41.785Z,102809.84
2019-02-23T23:31:11.505Z,102791.25
2019-02-23T23:33:38.697Z,102792.56
2019-02-23T23:36:05.935Z,102804.65
2019-02-23T23:38:36.303Z,102800.28
2019-02-23T23:41:06.063Z,102792.39
2019-02-23T23:43:35.577Z,102785.78
2019-02-23T23:46:02.720Z,102781.84
2019-02-23T23:48:31.698Z,102786.20
2019-02-23T23:51:02.512Z,102784.38
2019-02-23T23:53:29.674Z,102779.11
2019-02-23T23:55:56.865Z,102776.42
2019-02-23T23:58:26.263Z,102765.48
